sensor_id;sensor_type;location;lat;lon;timestamp;pressure;altitude;pressure_sealevel;temperature
11849;BMP180;5983;49.966;8.052;2023-04-03T00:00:40;101578.00;;;5.40
11849;BMP180;5983;49.966;8.052;2023-04-03T00:03:08;101573.00;;;5.40
11849;BMP180;5983;49.966;8.052;2023-04-03T00:05:35;101576.00;;;5.40
11849;BMP180;5983;49.966;8.052;2023-04-03T00:08:02;101578.00;;;5.40
11849;BMP180;5983;49.966;8.052;2023-04-03T00:10:33;101576.00;;;5.40
11849;BMP180;5983;49.966;8.052;2023-04-03T00:13:00;101581.00;;;5.40
11849;BMP180;5983;49.966;8.052;2023-04-03T00:15:27;101585.00;;;5.40
11849;BMP180;5983;49.966;8.052;2023-04-03T00:17:54;101579.00;;;5.40
11849;BMP180;5983;49.966;8.052;2023-04-03T00:20:23;101584.00;;;5.40
11849;BMP180;5983;49.966;8.052;2023-04-03T00:22:50;101583.00;;;5.40
11849;BMP180;5983;49.966;8.052;2023-04-03T00:25:17;101579.00;;;5.40
11849;BMP180;5983;49.966;8.052;2023-04-03T00:27:44;101577.00;;;5.40
11849;BMP180;5983;49.966;8.052;2023-04-03T00:30:15;101577.00;;;5.40
11849;BMP180;5983;49.966;8.052;2023-04-03T00:32:42;101583.00;;;5.40
11849;BMP180;5983;49.966;8.052;2023-04-03T00:35:10;101585.00;;;5.40
11849;BMP180;5983;49.966;8.052;2023-04-03T00:37:38;101589.00;;;5.40
11849;BMP180;5983;49.966;8.052;2023-04-03T00:40:07;101582.00;;;5.50
11849;BMP180;5983;49.966;8.052;2023-04-03T00:42:36;101581.00;;;5.50
11849;BMP180;5983;49.966;8.052;2023-04-03T00:45:28;101594.00;;;5.50
11849;BMP180;5983;49.966;8.052;2023-04-03T00:47:56;101585.00;;;5.50
11849;BMP180;5983;49.966;8.052;2023-04-03T00:50:26;101570.00;;;5.50
11849;BMP180;5983;49.966;8.052;2023-04-03T00:52:55;101573.00;;;5.50
11849;BMP180;5983;49.966;8.052;2023-04-03T00:55:23;101580.00;;;5.50
11849;BMP180;5983;49.966;8.052;2023-04-03T00:57:52;101576.00;;;5.50
11849;BMP180;5983;49.966;8.052;2023-04-03T01:00:22;101580.00;;;5.40
11849;BMP180;5983;49.966;8.052;2023-04-03T01:02:50;101576.00;;;5.40
11849;BMP180;5983;49.966;8.052;2023-04-03T01:05:20;101570.00;;;5.30
11849;BMP180;5983;49.966;8.052;2023-04-03T01:07:50;101568.00;;;5.30
11849;BMP180;5983;49.966;8.052;2023-04-03T01:10:20;101568.00;;;5.30
11849;BMP180;5983;49.966;8.052;2023-04-03T01:12:49;101575.00;;;5.30
11849;BMP180;5983;49.966;8.052;2023-04-03T01:15:21;101569.00;;;5.40
11849;BMP180;5983;49.966;8.052;2023-04-03T01:17:50;101561.00;;;5.40
11849;BMP180;5983;49.966;8.052;2023-04-03T01:21:23;101572.00;;;5.40
11849;BMP180;5983;49.966;8.052;2023-04-03T01:24:11;101568.00;;;5.50
11849;BMP180;5983;49.966;8.052;2023-04-03T01:26:41;101571.00;;;5.50
11849;BMP180;5983;49.966;8.052;2023-04-03T01:29:08;101573.00;;;5.50
11849;BMP180;5983;49.966;8.052;2023-04-03T01:31:48;101569.00;;;5.50
11849;BMP180;5983;49.966;8.052;2023-04-03T01:34:15;101574.00;;;5.50
11849;BMP180;5983;49.966;8.052;2023-04-03T01:36:42;101571.00;;;5.50
11849;BMP180;5983;49.966;8.052;2023-04-03T01:39:10;101576.00;;;5.50
11849;BMP180;5983;49.966;8.052;2023-04-03T01:41:37;101565.00;;;5.50
11849;BMP180;5983;49.966;8.052;2023-04-03T01:44:04;101571.00;;;5.50
11849;BMP180;5983;49.966;8.052;2023-04-03T01:46:31;101566.00;;;5.50
11849;BMP180;5983;49.966;8.052;2023-04-03T01:49:00;101565.00;;;5.50
11849;BMP180;5983;49.966;8.052;2023-04-03T01:51:27;101570.00;;;5.50
11849;BMP180;5983;49.966;8.052;2023-04-03T01:53:54;101576.00;;;5.50
11849;BMP180;5983;49.966;8.052;2023-04-03T01:56:21;101580.00;;;5.50
11849;BMP180;5983;49.966;8.052;2023-04-03T01:58:48;101578.00;;;5.50
11849;BMP180;5983;49.966;8.052;2023-04-03T02:01:15;101570.00;;;5.50
11849;BMP180;5983;49.966;8.052;2023-04-03T02:03:42;101572.00;;;5.50
11849;BMP180;5983;49.966;8.052;2023-04-03T02:06:10;101571.00;;;5.60
11849;BMP180;5983;49.966;8.052;2023-04-03T02:08:37;101568.00;;;5.60
11849;BMP180;5983;49.966;8.052;2023-04-03T02:11:04;101566.00;;;5.70
11849;BMP180;5983;49.966;8.052;2023-04-03T02:13:31;101579.00;;;5.70
11849;BMP180;5983;49.966;8.052;2023-04-03T02:15:57;101571.00;;;5.80
11849;BMP180;5983;49.966;8.052;2023-04-03T02:18:25;101578.00;;;5.80
11849;BMP180;5983;49.966;8.052;2023-04-03T02:20:52;101566.00;;;5.90
11849;BMP180;5983;49.966;8.052;2023-04-03T02:23:20;101564.00;;;5.90
11849;BMP180;5983;49.966;8.052;2023-04-03T02:25:46;101556.00;;;5.90
11849;BMP180;5983;49.966;8.052;2023-04-03T02:28:14;101554.00;;;5.90
11849;BMP180;5983;49.966;8.052;2023-04-03T02:30:41;101556.00;;;5.90
11849;BMP180;5983;49.966;8.052;2023-04-03T02:33:08;101557.00;;;5.90
11849;BMP180;5983;49.966;8.052;2023-04-03T02:35:35;101561.00;;;5.90
11849;BMP180;5983;49.966;8.052;2023-04-03T02:38:02;101551.00;;;5.90
11849;BMP180;5983;49.966;8.052;2023-04-03T02:40:30;101566.00;;;5.90
11849;BMP180;5983;49.966;8.052;2023-04-03T02:42:57;101552.00;;;5.90
11849;BMP180;5983;49.966;8.052;2023-04-03T02:45:24;101566.00;;;5.90
11849;BMP180;5983;49.966;8.052;2023-04-03T02:47:51;101562.00;;;5.90
11849;BMP180;5983;49.966;8.052;2023-04-03T02:50:18;101551.00;;;5.90
11849;BMP180;5983;49.966;8.052;2023-04-03T02:52:45;101549.00;;;5.90
11849;BMP180;5983;49.966;8.052;2023-04-03T02:55:14;101557.00;;;6.00
11849;BMP180;5983;49.966;8.052;2023-04-03T02:57:43;101553.00;;;5.90
11849;BMP180;5983;49.966;8.052;2023-04-03T03:00:10;101559.00;;;5.90
11849;BMP180;5983;49.966;8.052;2023-04-03T03:02:38;101568.00;;;5.90
11849;BMP180;5983;49.966;8.052;2023-04-03T03:05:06;101574.00;;;5.90
11849;BMP180;5983;49.966;8.052;2023-04-03T03:07:33;101560.00;;;5.90
11849;BMP180;5983;49.966;8.052;2023-04-03T03:10:00;101565.00;;;5.90
11849;BMP180;5983;49.966;8.052;2023-04-03T03:12:27;101570.00;;;5.90
11849;BMP180;5983;49.966;8.052;2023-04-03T03:14:55;101561.00;;;5.90
11849;BMP180;5983;49.966;8.052;2023-04-03T03:17:22;101569.00;;;5.90
11849;BMP180;5983;49.966;8.052;2023-04-03T03:19:49;101577.00;;;5.90
11849;BMP180;5983;49.966;8.052;2023-04-03T03:22:16;101567.00;;;5.90
11849;BMP180;5983;49.966;8.052;2023-04-03T03:24:43;101566.00;;;5.80
11849;BMP180;5983;49.966;8.052;2023-04-03T03:27:10;101569.00;;;5.80
11849;BMP180;5983;49.966;8.052;2023-04-03T03:29:37;101562.00;;;5.80
11849;BMP180;5983;49.966;8.052;2023-04-03T03:32:06;101565.00;;;5.80
11849;BMP180;5983;49.966;8.052;2023-04-03T03:34:32;101568.00;;;5.80
11849;BMP180;5983;49.966;8.052;2023-04-03T03:36:59;101580.00;;;5.80
11849;BMP180;5983;49.966;8.052;2023-04-03T03:39:26;101576.00;;;5.80
11849;BMP180;5983;49.966;8.052;2023-04-03T03:41:53;101573.00;;;5.80
11849;BMP180;5983;49.966;8.052;2023-04-03T03:44:20;101577.00;;;5.80
11849;BMP180;5983;49.966;8.052;2023-04-03T03:46:47;101582.00;;;5.80
11849;BMP180;5983;49.966;8.052;2023-04-03T03:49:15;101581.00;;;5.80
11849;BMP180;5983;49.966;8.052;2023-04-03T03:51:42;101581.00;;;5.80
11849;BMP180;5983;49.966;8.052;2023-04-03T03:54:10;101575.00;;;5.80
11849;BMP180;5983;49.966;8.052;2023-04-03T03:56:37;101583.00;;;5.80
11849;BMP180;5983;49.966;8.052;2023-04-03T03:59:03;101579.00;;;5.80
11849;BMP180;5983;49.966;8.052;2023-04-03T04:01:31;101575.00;;;5.80
11849;BMP180;5983;49.966;8.052;2023-04-03T04:03:58;101579.00;;;5.80
11849;BMP180;5983;49.966;8.052;2023-04-03T04:06:26;101584.00;;;5.70
11849;BMP180;5983;49.966;8.052;2023-04-03T04:08:53;101582.00;;;5.70
11849;BMP180;5983;49.966;8.052;2023-04-03T04:11:20;101581.00;;;5.60
11849;BMP180;5983;49.966;8.052;2023-04-03T04:13:47;101580.00;;;5.60
11849;BMP180;5983;49.966;8.052;2023-04-03T04:16:14;101581.00;;;5.60
11849;BMP180;5983;49.966;8.052;2023-04-03T04:18:41;101576.00;;;5.60
11849;BMP180;5983;49.966;8.052;2023-04-03T04:21:08;101577.00;;;5.50
11849;BMP180;5983;49.966;8.052;2023-04-03T04:23:36;101580.00;;;5.50
11849;BMP180;5983;49.966;8.052;2023-04-03T04:26:03;101581.00;;;5.50
11849;BMP180;5983;49.966;8.052;2023-04-03T04:28:30;101578.00;;;5.50
11849;BMP180;5983;49.966;8.052;2023-04-03T04:30:56;101585.00;;;5.40
11849;BMP180;5983;49.966;8.052;2023-04-03T04:33:23;101584.00;;;5.40
11849;BMP180;5983;49.966;8.052;2023-04-03T04:35:51;101587.00;;;5.40
11849;BMP180;5983;49.966;8.052;2023-04-03T04:38:18;101581.00;;;5.40
11849;BMP180;5983;49.966;8.052;2023-04-03T04:40:47;101581.00;;;5.40
11849;BMP180;5983;49.966;8.052;2023-04-03T04:43:14;101578.00;;;5.40
11849;BMP180;5983;49.966;8.052;2023-04-03T04:45:41;101581.00;;;5.30
11849;BMP180;5983;49.966;8.052;2023-04-03T04:48:08;101583.00;;;5.30
11849;BMP180;5983;49.966;8.052;2023-04-03T04:50:35;101586.00;;;5.30
11849;BMP180;5983;49.966;8.052;2023-04-03T04:53:02;101592.00;;;5.30
11849;BMP180;5983;49.966;8.052;2023-04-03T04:55:29;101594.00;;;5.30
11849;BMP180;5983;49.966;8.052;2023-04-03T04:57:58;101594.00;;;5.30
11849;BMP180;5983;49.966;8.052;2023-04-03T05:00:25;101601.00;;;5.20
11849;BMP180;5983;49.966;8.052;2023-04-03T05:02:52;101606.00;;;5.20
11849;BMP180;5983;49.966;8.052;2023-04-03T05:05:19;101603.00;;;5.20
11849;BMP180;5983;49.966;8.052;2023-04-03T05:07:46;101606.00;;;5.20
11849;BMP180;5983;49.966;8.052;2023-04-03T05:10:12;101601.00;;;5.10
11849;BMP180;5983;49.966;8.052;2023-04-03T05:12:39;101597.00;;;5.10
11849;BMP180;5983;49.966;8.052;2023-04-03T05:15:09;101597.00;;;5.10
11849;BMP180;5983;49.966;8.052;2023-04-03T05:17:36;101609.00;;;5.10
11849;BMP180;5983;49.966;8.052;2023-04-03T05:20:04;101614.00;;;5.10
11849;BMP180;5983;49.966;8.052;2023-04-03T05:22:31;101620.00;;;5.00
11849;BMP180;5983;49.966;8.052;2023-04-03T05:24:58;101615.00;;;5.00
11849;BMP180;5983;49.966;8.052;2023-04-03T05:27:26;101621.00;;;5.00
11849;BMP180;5983;49.966;8.052;2023-04-03T05:29:54;101621.00;;;5.00
11849;BMP180;5983;49.966;8.052;2023-04-03T05:32:23;101620.00;;;5.00
11849;BMP180;5983;49.966;8.052;2023-04-03T05:34:51;101624.00;;;5.00
11849;BMP180;5983;49.966;8.052;2023-04-03T05:37:18;101629.00;;;5.00
11849;BMP180;5983;49.966;8.052;2023-04-03T05:39:46;101634.00;;;5.00
11849;BMP180;5983;49.966;8.052;2023-04-03T05:42:12;101633.00;;;5.10
11849;BMP180;5983;49.966;8.052;2023-04-03T05:44:40;101631.00;;;5.20
11849;BMP180;5983;49.966;8.052;2023-04-03T05:47:07;101634.00;;;5.30
11849;BMP180;5983;49.966;8.052;2023-04-03T05:49:35;101639.00;;;5.30
11849;BMP180;5983;49.966;8.052;2023-04-03T05:52:06;101638.00;;;5.40
11849;BMP180;5983;49.966;8.052;2023-04-03T05:54:35;101639.00;;;5.40
11849;BMP180;5983;49.966;8.052;2023-04-03T05:57:02;101647.00;;;5.40
11849;BMP180;5983;49.966;8.052;2023-04-03T05:59:28;101649.00;;;5.50
11849;BMP180;5983;49.966;8.052;2023-04-03T06:01:55;101654.00;;;5.50
11849;BMP180;5983;49.966;8.052;2023-04-03T06:04:22;101659.00;;;5.50
11849;BMP180;5983;49.966;8.052;2023-04-03T06:06:53;101663.00;;;5.50
11849;BMP180;5983;49.966;8.052;2023-04-03T06:09:23;101655.00;;;5.50
11849;BMP180;5983;49.966;8.052;2023-04-03T06:11:51;101654.00;;;5.50
11849;BMP180;5983;49.966;8.052;2023-04-03T06:14:18;101656.00;;;5.60
11849;BMP180;5983;49.966;8.052;2023-04-03T06:16:45;101660.00;;;5.60
11849;BMP180;5983;49.966;8.052;2023-04-03T06:19:13;101662.00;;;5.60
11849;BMP180;5983;49.966;8.052;2023-04-03T06:21:40;101670.00;;;5.80
11849;BMP180;5983;49.966;8.052;2023-04-03T06:24:09;101667.00;;;6.00
11849;BMP180;5983;49.966;8.052;2023-04-03T06:26:38;101666.00;;;6.10
11849;BMP180;5983;49.966;8.052;2023-04-03T06:29:05;101674.00;;;6.40
11849;BMP180;5983;49.966;8.052;2023-04-03T06:31:33;101679.00;;;6.80
11849;BMP180;5983;49.966;8.052;2023-04-03T06:34:00;101675.00;;;6.90
11849;BMP180;5983;49.966;8.052;2023-04-03T06:36:27;101678.00;;;7.00
11849;BMP180;5983;49.966;8.052;2023-04-03T06:38:54;101692.00;;;6.90
11849;BMP180;5983;49.966;8.052;2023-04-03T06:41:23;101693.00;;;6.80
11849;BMP180;5983;49.966;8.052;2023-04-03T06:43:52;101702.00;;;6.70
11849;BMP180;5983;49.966;8.052;2023-04-03T06:46:21;101698.00;;;6.70
11849;BMP180;5983;49.966;8.052;2023-04-03T06:48:49;101695.00;;;6.80
11849;BMP180;5983;49.966;8.052;2023-04-03T06:51:22;101699.00;;;7.80
11849;BMP180;5983;49.966;8.052;2023-04-03T06:53:50;101706.00;;;8.70
11849;BMP180;5983;49.966;8.052;2023-04-03T06:56:19;101709.00;;;8.70
11849;BMP180;5983;49.966;8.052;2023-04-03T06:58:47;101708.00;;;8.40
11849;BMP180;5983;49.966;8.052;2023-04-03T07:01:16;101709.00;;;8.10
11849;BMP180;5983;49.966;8.052;2023-04-03T07:03:43;101712.00;;;8.10
11849;BMP180;5983;49.966;8.052;2023-04-03T07:06:12;101724.00;;;8.30
11849;BMP180;5983;49.966;8.052;2023-04-03T07:08:40;101717.00;;;9.10
11849;BMP180;5983;49.966;8.052;2023-04-03T07:11:09;101724.00;;;9.60
11849;BMP180;5983;49.966;8.052;2023-04-03T07:13:36;101728.00;;;10.60
11849;BMP180;5983;49.966;8.052;2023-04-03T07:16:06;101728.00;;;12.40
11849;BMP180;5983;49.966;8.052;2023-04-03T07:18:34;101743.00;;;13.90
11849;BMP180;5983;49.966;8.052;2023-04-03T07:21:02;101740.00;;;14.90
11849;BMP180;5983;49.966;8.052;2023-04-03T07:23:30;101749.00;;;15.60
11849;BMP180;5983;49.966;8.052;2023-04-03T07:25:57;101752.00;;;16.30
11849;BMP180;5983;49.966;8.052;2023-04-03T07:28:25;101758.00;;;16.80
11849;BMP180;5983;49.966;8.052;2023-04-03T07:30:54;101754.00;;;16.90
11849;BMP180;5983;49.966;8.052;2023-04-03T07:33:23;101763.00;;;17.10
11849;BMP180;5983;49.966;8.052;2023-04-03T07:35:50;101765.00;;;17.30
11849;BMP180;5983;49.966;8.052;2023-04-03T07:38:17;101770.00;;;17.40
11849;BMP180;5983;49.966;8.052;2023-04-03T07:40:47;101769.00;;;17.70
11849;BMP180;5983;49.966;8.052;2023-04-03T07:43:14;101769.00;;;18.10
11849;BMP180;5983;49.966;8.052;2023-04-03T07:45:42;101770.00;;;18.30
11849;BMP180;5983;49.966;8.052;2023-04-03T07:48:10;101773.00;;;18.70
11849;BMP180;5983;49.966;8.052;2023-04-03T07:50:41;101771.00;;;18.80
11849;BMP180;5983;49.966;8.052;2023-04-03T07:53:08;101781.00;;;18.80
11849;BMP180;5983;49.966;8.052;2023-04-03T07:55:36;101784.00;;;18.80
11849;BMP180;5983;49.966;8.052;2023-04-03T07:58:09;101787.00;;;18.40
11849;BMP180;5983;49.966;8.052;2023-04-03T08:00:36;101784.00;;;17.50
11849;BMP180;5983;49.966;8.052;2023-04-03T08:03:04;101792.00;;;16.80
11849;BMP180;5983;49.966;8.052;2023-04-03T08:05:36;101788.00;;;16.20
11849;BMP180;5983;49.966;8.052;2023-04-03T08:08:04;101788.00;;;16.10
11849;BMP180;5983;49.966;8.052;2023-04-03T08:10:31;101793.00;;;16.50
11849;BMP180;5983;49.966;8.052;2023-04-03T08:12:58;101786.00;;;16.60
11849;BMP180;5983;49.966;8.052;2023-04-03T08:15:25;101790.00;;;16.60
11849;BMP180;5983;49.966;8.052;2023-04-03T08:17:53;101793.00;;;16.70
11849;BMP180;5983;49.966;8.052;2023-04-03T08:20:20;101789.00;;;16.90
11849;BMP180;5983;49.966;8.052;2023-04-03T08:22:47;101783.00;;;16.60
11849;BMP180;5983;49.966;8.052;2023-04-03T08:25:16;101782.00;;;16.70
11849;BMP180;5983;49.966;8.052;2023-04-03T08:27:43;101787.00;;;16.40
11849;BMP180;5983;49.966;8.052;2023-04-03T08:30:12;101784.00;;;16.40
11849;BMP180;5983;49.966;8.052;2023-04-03T08:32:39;101778.00;;;15.80
11849;BMP180;5983;49.966;8.052;2023-04-03T08:35:08;101782.00;;;15.80
11849;BMP180;5983;49.966;8.052;2023-04-03T08:37:35;101780.00;;;15.80
11849;BMP180;5983;49.966;8.052;2023-04-03T08:40:03;101791.00;;;15.90
11849;BMP180;5983;49.966;8.052;2023-04-03T08:42:48;101782.00;;;15.90
11849;BMP180;5983;49.966;8.052;2023-04-03T08:45:26;101781.00;;;16.00
11849;BMP180;5983;49.966;8.052;2023-04-03T08:48:00;101780.00;;;16.20
11849;BMP180;5983;49.966;8.052;2023-04-03T08:50:38;101787.00;;;16.30
11849;BMP180;5983;49.966;8.052;2023-04-03T08:53:14;101784.00;;;16.40
11849;BMP180;5983;49.966;8.052;2023-04-03T08:55:46;101793.00;;;16.20
11849;BMP180;5983;49.966;8.052;2023-04-03T08:58:19;101785.00;;;16.00
11849;BMP180;5983;49.966;8.052;2023-04-03T09:00:50;101789.00;;;16.20
11849;BMP180;5983;49.966;8.052;2023-04-03T09:03:21;101791.00;;;16.10
11849;BMP180;5983;49.966;8.052;2023-04-03T09:05:54;101793.00;;;16.00
11849;BMP180;5983;49.966;8.052;2023-04-03T09:08:26;101788.00;;;16.20
11849;BMP180;5983;49.966;8.052;2023-04-03T09:11:09;101789.00;;;16.00
11849;BMP180;5983;49.966;8.052;2023-04-03T09:13:49;101807.00;;;16.00
11849;BMP180;5983;49.966;8.052;2023-04-03T09:16:33;101786.00;;;16.20
11849;BMP180;5983;49.966;8.052;2023-04-03T09:19:15;101791.00;;;16.20
11849;BMP180;5983;49.966;8.052;2023-04-03T09:21:43;101800.00;;;15.90
11849;BMP180;5983;49.966;8.052;2023-04-03T09:24:13;101795.00;;;15.90
11849;BMP180;5983;49.966;8.052;2023-04-03T09:26:46;101793.00;;;15.70
11849;BMP180;5983;49.966;8.052;2023-04-03T09:29:19;101799.00;;;15.20
11849;BMP180;5983;49.966;8.052;2023-04-03T09:31:50;101788.00;;;14.70
11849;BMP180;5983;49.966;8.052;2023-04-03T09:34:23;101783.00;;;14.90
11849;BMP180;5983;49.966;8.052;2023-04-03T09:36:54;101780.00;;;15.20
11849;BMP180;5983;49.966;8.052;2023-04-03T09:39:24;101795.00;;;15.10
11849;BMP180;5983;49.966;8.052;2023-04-03T09:42:00;101793.00;;;15.20
11849;BMP180;5983;49.966;8.052;2023-04-03T09:44:31;101793.00;;;15.30
11849;BMP180;5983;49.966;8.052;2023-04-03T09:46:59;101785.00;;;15.40
11849;BMP180;5983;49.966;8.052;2023-04-03T09:49:26;101783.00;;;15.70
11849;BMP180;5983;49.966;8.052;2023-04-03T09:51:53;101783.00;;;15.90
11849;BMP180;5983;49.966;8.052;2023-04-03T09:54:35;101793.00;;;15.90
11849;BMP180;5983;49.966;8.052;2023-04-03T09:57:10;101787.00;;;15.60
11849;BMP180;5983;49.966;8.052;2023-04-03T09:59:47;101777.00;;;15.20
11849;BMP180;5983;49.966;8.052;2023-04-03T10:02:36;101790.00;;;14.90
11849;BMP180;5983;49.966;8.052;2023-04-03T10:05:26;101792.00;;;15.30
11849;BMP180;5983;49.966;8.052;2023-04-03T10:08:09;101791.00;;;15.70
11849;BMP180;5983;49.966;8.052;2023-04-03T10:10:37;101795.00;;;15.80
11849;BMP180;5983;49.966;8.052;2023-04-03T10:13:06;101792.00;;;15.90
11849;BMP180;5983;49.966;8.052;2023-04-03T10:15:41;101802.00;;;16.00
11849;BMP180;5983;49.966;8.052;2023-04-03T10:18:29;101799.00;;;16.20
11849;BMP180;5983;49.966;8.052;2023-04-03T10:21:04;101802.00;;;16.30
11849;BMP180;5983;49.966;8.052;2023-04-03T10:23:40;101803.00;;;16.20
11849;BMP180;5983;49.966;8.052;2023-04-03T10:26:17;101796.00;;;15.90
11849;BMP180;5983;49.966;8.052;2023-04-03T10:28:58;101789.00;;;15.70
11849;BMP180;5983;49.966;8.052;2023-04-03T10:31:36;101790.00;;;15.80
11849;BMP180;5983;49.966;8.052;2023-04-03T10:34:16;101783.00;;;15.70
11849;BMP180;5983;49.966;8.052;2023-04-03T10:36:56;101801.00;;;15.30
11849;BMP180;5983;49.966;8.052;2023-04-03T10:39:35;101791.00;;;15.20
11849;BMP180;5983;49.966;8.052;2023-04-03T10:42:11;101793.00;;;15.20
11849;BMP180;5983;49.966;8.052;2023-04-03T10:44:55;101796.00;;;15.20
11849;BMP180;5983;49.966;8.052;2023-04-03T10:47:37;101789.00;;;15.10
11849;BMP180;5983;49.966;8.052;2023-04-03T10:50:29;101787.00;;;15.10
11849;BMP180;5983;49.966;8.052;2023-04-03T10:53:04;101789.00;;;14.70
11849;BMP180;5983;49.966;8.052;2023-04-03T10:55:43;101788.00;;;14.40
11849;BMP180;5983;49.966;8.052;2023-04-03T10:58:24;101780.00;;;14.20
11849;BMP180;5983;49.966;8.052;2023-04-03T11:00:59;101780.00;;;14.70
11849;BMP180;5983;49.966;8.052;2023-04-03T11:03:34;101782.00;;;14.80
11849;BMP180;5983;49.966;8.052;2023-04-03T11:06:07;101778.00;;;14.50
11849;BMP180;5983;49.966;8.052;2023-04-03T11:08:42;101777.00;;;14.10
11849;BMP180;5983;49.966;8.052;2023-04-03T11:11:17;101777.00;;;14.40
11849;BMP180;5983;49.966;8.052;2023-04-03T11:13:50;101776.00;;;14.00
11849;BMP180;5983;49.966;8.052;2023-04-03T11:16:24;101773.00;;;13.90
11849;BMP180;5983;49.966;8.052;2023-04-03T11:18:59;101765.00;;;14.50
11849;BMP180;5983;49.966;8.052;2023-04-03T11:21:33;101771.00;;;15.40
11849;BMP180;5983;49.966;8.052;2023-04-03T11:24:05;101761.00;;;15.20
11849;BMP180;5983;49.966;8.052;2023-04-03T11:26:41;101760.00;;;14.70
11849;BMP180;5983;49.966;8.052;2023-04-03T11:29:15;101766.00;;;15.40
11849;BMP180;5983;49.966;8.052;2023-04-03T11:32:08;101767.00;;;15.60
11849;BMP180;5983;49.966;8.052;2023-04-03T11:34:41;101763.00;;;15.90
11849;BMP180;5983;49.966;8.052;2023-04-03T11:37:25;101758.00;;;16.10
11849;BMP180;5983;49.966;8.052;2023-04-03T11:39:58;101756.00;;;16.00
11849;BMP180;5983;49.966;8.052;2023-04-03T11:42:34;101741.00;;;15.50
11849;BMP180;5983;49.966;8.052;2023-04-03T11:45:30;101753.00;;;16.00
11849;BMP180;5983;49.966;8.052;2023-04-03T11:48:00;101750.00;;;16.40
11849;BMP180;5983;49.966;8.052;2023-04-03T11:50:48;101751.00;;;17.00
11849;BMP180;5983;49.966;8.052;2023-04-03T11:53:30;101761.00;;;17.40
11849;BMP180;5983;49.966;8.052;2023-04-03T11:56:00;101750.00;;;17.90
11849;BMP180;5983;49.966;8.052;2023-04-03T11:58:30;101756.00;;;17.40
11849;BMP180;5983;49.966;8.052;2023-04-03T12:01:43;101762.00;;;17.20
11849;BMP180;5983;49.966;8.052;2023-04-03T12:04:12;101758.00;;;17.20
11849;BMP180;5983;49.966;8.052;2023-04-03T12:07:01;101754.00;;;16.60
11849;BMP180;5983;49.966;8.052;2023-04-03T12:09:57;101752.00;;;15.80
11849;BMP180;5983;49.966;8.052;2023-04-03T12:12:37;101743.00;;;15.80
11849;BMP180;5983;49.966;8.052;2023-04-03T12:15:24;101753.00;;;15.40
11849;BMP180;5983;49.966;8.052;2023-04-03T12:17:52;101742.00;;;15.10
11849;BMP180;5983;49.966;8.052;2023-04-03T12:21:01;101739.00;;;15.70
11849;BMP180;5983;49.966;8.052;2023-04-03T12:23:33;101725.00;;;16.30
11849;BMP180;5983;49.966;8.052;2023-04-03T12:26:20;101728.00;;;16.30
11849;BMP180;5983;49.966;8.052;2023-04-03T12:28:50;101724.00;;;15.60
11849;BMP180;5983;49.966;8.052;2023-04-03T12:31:19;101720.00;;;15.00
11849;BMP180;5983;49.966;8.052;2023-04-03T12:34:12;101710.00;;;15.50
11849;BMP180;5983;49.966;8.052;2023-04-03T12:36:58;101707.00;;;15.50
11849;BMP180;5983;49.966;8.052;2023-04-03T12:39:46;101719.00;;;15.40
11849;BMP180;5983;49.966;8.052;2023-04-03T12:42:32;101702.00;;;15.70
11849;BMP180;5983;49.966;8.052;2023-04-03T12:45:16;101713.00;;;15.90
11849;BMP180;5983;49.966;8.052;2023-04-03T12:47:45;101710.00;;;16.20
11849;BMP180;5983;49.966;8.052;2023-04-03T12:50:23;101699.00;;;16.50
11849;BMP180;5983;49.966;8.052;2023-04-03T12:52:59;101710.00;;;16.50
11849;BMP180;5983;49.966;8.052;2023-04-03T12:55:29;101711.00;;;15.80
11849;BMP180;5983;49.966;8.052;2023-04-03T12:57:56;101704.00;;;15.90
11849;BMP180;5983;49.966;8.052;2023-04-03T13:00:33;101702.00;;;16.10
11849;BMP180;5983;49.966;8.052;2023-04-03T13:03:02;101697.00;;;16.20
11849;BMP180;5983;49.966;8.052;2023-04-03T13:05:31;101679.00;;;16.10
11849;BMP180;5983;49.966;8.052;2023-04-03T13:08:02;101683.00;;;16.10
11849;BMP180;5983;49.966;8.052;2023-04-03T13:10:43;101695.00;;;15.50
11849;BMP180;5983;49.966;8.052;2023-04-03T13:13:15;101700.00;;;14.80
11849;BMP180;5983;49.966;8.052;2023-04-03T13:15:44;101689.00;;;14.40
11849;BMP180;5983;49.966;8.052;2023-04-03T13:18:31;101685.00;;;14.60
11849;BMP180;5983;49.966;8.052;2023-04-03T13:21:05;101691.00;;;15.00
11849;BMP180;5983;49.966;8.052;2023-04-03T13:23:36;101689.00;;;14.80
11849;BMP180;5983;49.966;8.052;2023-04-03T13:26:07;101693.00;;;14.90
11849;BMP180;5983;49.966;8.052;2023-04-03T13:28:35;101703.00;;;15.10
11849;BMP180;5983;49.966;8.052;2023-04-03T13:31:08;101683.00;;;15.10
11849;BMP180;5983;49.966;8.052;2023-04-03T13:33:57;101685.00;;;15.20
11849;BMP180;5983;49.966;8.052;2023-04-03T13:36:30;101686.00;;;15.20
11849;BMP180;5983;49.966;8.052;2023-04-03T13:39:00;101676.00;;;15.30
11849;BMP180;5983;49.966;8.052;2023-04-03T13:41:33;101681.00;;;15.40
11849;BMP180;5983;49.966;8.052;2023-04-03T13:44:26;101676.00;;;15.40
11849;BMP180;5983;49.966;8.052;2023-04-03T13:46:57;101670.00;;;15.40
11849;BMP180;5983;49.966;8.052;2023-04-03T13:49:34;101676.00;;;15.30
11849;BMP180;5983;49.966;8.052;2023-04-03T13:52:17;101671.00;;;15.10
11849;BMP180;5983;49.966;8.052;2023-04-03T13:54:54;101672.00;;;14.90
11849;BMP180;5983;49.966;8.052;2023-04-03T13:57:23;101658.00;;;14.70
11849;BMP180;5983;49.966;8.052;2023-04-03T13:59:51;101661.00;;;14.90
11849;BMP180;5983;49.966;8.052;2023-04-03T14:02:22;101658.00;;;14.90
11849;BMP180;5983;49.966;8.052;2023-04-03T14:04:58;101668.00;;;15.00
11849;BMP180;5983;49.966;8.052;2023-04-03T14:07:28;101672.00;;;14.80
11849;BMP180;5983;49.966;8.052;2023-04-03T14:09:57;101663.00;;;14.80
11849;BMP180;5983;49.966;8.052;2023-04-03T14:12:30;101660.00;;;14.70
11849;BMP180;5983;49.966;8.052;2023-04-03T14:15:03;101653.00;;;14.60
11849;BMP180;5983;49.966;8.052;2023-04-03T14:17:31;101649.00;;;14.60
11849;BMP180;5983;49.966;8.052;2023-04-03T14:19:58;101651.00;;;14.60
11849;BMP180;5983;49.966;8.052;2023-04-03T14:22:31;101649.00;;;14.60
11849;BMP180;5983;49.966;8.052;2023-04-03T14:25:00;101643.00;;;14.50
11849;BMP180;5983;49.966;8.052;2023-04-03T14:27:34;101647.00;;;14.30
11849;BMP180;5983;49.966;8.052;2023-04-03T14:30:04;101640.00;;;14.10
11849;BMP180;5983;49.966;8.052;2023-04-03T14:32:32;101644.00;;;14.20
11849;BMP180;5983;49.966;8.052;2023-04-03T14:34:59;101632.00;;;14.20
11849;BMP180;5983;49.966;8.052;2023-04-03T14:37:28;101627.00;;;14.20